createdAt,value
2017-10-10T00:00:11.198Z,971.21
2017-10-10T00:01:11.192Z,971.26
2017-10-10T00:02:11.184Z,971.22
2017-10-10T00:03:11.283Z,971.26
2017-10-10T00:04:11.170Z,971.22
2017-10-10T00:05:11.163Z,971.22
2017-10-10T00:06:11.156Z,971.25
2017-10-10T00:07:11.153Z,971.22
2017-10-10T00:08:11.143Z,971.19
2017-10-10T00:09:11.135Z,971.24
2017-10-10T00:10:11.135Z,971.2
2017-10-10T00:11:11.126Z,971.2
2017-10-10T00:12:11.115Z,971.18
2017-10-10T00:13:11.109Z,971.14
2017-10-10T00:14:11.100Z,971.16
2017-10-10T00:15:11.193Z,971.12
2017-10-10T00:16:11.085Z,971.13
2017-10-10T00:17:11.080Z,971.14
2017-10-10T00:18:11.071Z,971.08
2017-10-10T00:19:11.066Z,971.14
2017-10-10T00:20:11.057Z,971.13
2017-10-10T00:21:11.050Z,971.15
2017-10-10T00:22:11.044Z,971.13
2017-10-10T00:23:11.043Z,971.14
2017-10-10T00:24:11.037Z,971.12
2017-10-10T00:25:11.024Z,971.12
2017-10-10T00:26:11.015Z,971.13
2017-10-10T00:27:11.008Z,971.14
2017-10-10T00:28:11.001Z,971.13
2017-10-10T00:29:10.994Z,971.11
2017-10-10T00:30:11.004Z,971.12
2017-10-10T00:31:10.980Z,971.14
2017-10-10T00:32:10.973Z,971.13
2017-10-10T00:33:10.966Z,971.13
2017-10-10T00:34:10.958Z,971.14
2017-10-10T00:35:10.952Z,971.12
2017-10-10T00:36:10.944Z,971.06
2017-10-10T00:37:10.938Z,971.08
2017-10-10T00:38:11.031Z,971.03
2017-10-10T00:39:10.923Z,971.01
2017-10-10T00:40:10.916Z,971
2017-10-10T00:41:10.919Z,971.02
2017-10-10T00:42:10.901Z,971.03
2017-10-10T00:43:10.897Z,971.01
2017-10-10T00:44:10.888Z,971
2017-10-10T00:45:11.031Z,971.01
2017-10-10T00:46:10.874Z,970.99
2017-10-10T00:47:10.874Z,971.03
2017-10-10T00:48:10.860Z,971.03
2017-10-10T00:49:10.853Z,971.01
2017-10-10T00:50:10.847Z,971.04
2017-10-10T00:51:10.839Z,971.03
2017-10-10T00:52:10.831Z,971.05
2017-10-10T00:53:10.824Z,971.04
2017-10-10T00:54:10.817Z,971.02
2017-10-10T00:55:10.809Z,971.05
2017-10-10T00:56:10.903Z,971.05
2017-10-10T00:57:10.795Z,971.06
2017-10-10T00:58:10.797Z,971.05
2017-10-10T00:59:10.781Z,971.04
2017-10-10T01:00:10.775Z,971.03
2017-10-10T01:01:10.768Z,971
2017-10-10T01:02:10.762Z,971.04
2017-10-10T01:03:10.753Z,971.03
2017-10-10T01:04:10.745Z,971.03
2017-10-10T01:05:10.739Z,970.97
2017-10-10T01:06:10.732Z,970.97
2017-10-10T01:07:10.724Z,971.02
2017-10-10T01:08:10.718Z,970.94
2017-10-10T01:09:10.710Z,970.94
2017-10-10T01:10:10.703Z,970.96
2017-10-10T01:11:10.796Z,970.95
2017-10-10T01:12:10.688Z,970.97
2017-10-10T01:13:10.782Z,970.95
2017-10-10T01:14:10.674Z,970.96
2017-10-10T01:15:10.666Z,970.93
2017-10-10T01:16:10.659Z,970.93
2017-10-10T01:17:10.655Z,970.92
2017-10-10T01:18:10.646Z,970.91
2017-10-10T01:19:10.639Z,970.87
2017-10-10T01:20:10.633Z,970.87
2017-10-10T01:21:10.724Z,970.87
2017-10-10T01:22:10.616Z,970.81
2017-10-10T01:23:10.609Z,970.84
2017-10-10T01:24:10.603Z,970.85
2017-10-10T01:25:10.608Z,970.85
2017-10-10T01:26:10.588Z,970.86
2017-10-10T01:27:10.581Z,970.83
2017-10-10T01:28:10.574Z,970.89
2017-10-10T01:29:10.567Z,970.85
2017-10-10T01:30:10.560Z,970.9
2017-10-10T01:31:10.557Z,970.89
2017-10-10T01:32:10.546Z,970.91
2017-10-10T01:33:10.538Z,970.85
2017-10-10T01:34:10.532Z,970.87
2017-10-10T01:35:10.524Z,970.83
2017-10-10T01:36:10.518Z,970.86
2017-10-10T01:37:10.513Z,970.84
2017-10-10T01:38:10.504Z,970.84
2017-10-10T01:39:10.497Z,970.84
2017-10-10T01:40:10.488Z,970.86
2017-10-10T01:41:10.481Z,970.84
2017-10-10T01:42:10.483Z,970.85
2017-10-10T01:43:10.467Z,970.84
2017-10-10T01:44:10.559Z,970.84
2017-10-10T01:45:10.454Z,970.81
2017-10-10T01:46:10.447Z,970.84
2017-10-10T01:47:10.437Z,970.83
2017-10-10T01:48:10.435Z,970.81
2017-10-10T01:49:10.425Z,970.81
2017-10-10T01:50:10.417Z,970.82
2017-10-10T01:51:10.409Z,970.81
2017-10-10T01:52:10.404Z,970.79
2017-10-10T01:53:10.395Z,970.78
2017-10-10T01:54:10.389Z,970.81
2017-10-10T01:55:10.481Z,970.8
2017-10-10T01:56:10.376Z,970.79
2017-10-10T01:57:10.367Z,970.77
2017-10-10T01:58:10.360Z,970.74
2017-10-10T01:59:10.352Z,970.76
2017-10-10T02:00:10.346Z,970.79
2017-10-10T02:01:10.338Z,970.76
2017-10-10T02:02:10.331Z,970.74
2017-10-10T02:03:10.323Z,970.77
2017-10-10T02:04:10.318Z,970.77
2017-10-10T02:05:10.309Z,970.74
2017-10-10T02:06:10.302Z,970.73
2017-10-10T02:07:10.296Z,970.73
2017-10-10T02:08:10.291Z,970.7
2017-10-10T02:09:10.280Z,970.67
2017-10-10T02:10:10.280Z,970.65
2017-10-10T02:11:10.266Z,970.63
2017-10-10T02:12:10.259Z,970.65
2017-10-10T02:13:10.253Z,970.67
2017-10-10T02:14:10.243Z,970.62
2017-10-10T02:15:10.237Z,970.6
2017-10-10T02:16:10.231Z,970.6
2017-10-10T02:17:10.226Z,970.6
2017-10-10T02:18:10.215Z,970.58
2017-10-10T02:19:10.208Z,970.62
2017-10-10T02:20:10.203Z,970.61
2017-10-10T02:21:10.193Z,970.64
2017-10-10T02:22:10.186Z,970.61
2017-10-10T02:23:10.180Z,970.65
2017-10-10T02:24:10.171Z,970.66
2017-10-10T02:25:10.163Z,970.62
2017-10-10T02:26:10.158Z,970.65
2017-10-10T02:27:10.157Z,970.63
2017-10-10T02:28:10.143Z,970.63
2017-10-10T02:29:10.155Z,970.65
2017-10-10T02:30:10.230Z,970.62
2017-10-10T02:31:10.121Z,970.59
2017-10-10T02:32:10.114Z,970.62
2017-10-10T02:33:10.107Z,970.6
2017-10-10T02:34:10.100Z,970.6
2017-10-10T02:35:10.093Z,970.64
2017-10-10T02:36:10.085Z,970.62
2017-10-10T02:37:10.078Z,970.64
2017-10-10T02:38:10.172Z,970.67
2017-10-10T02:39:10.064Z,970.73
2017-10-10T02:40:10.057Z,970.7
2017-10-10T02:41:10.149Z,970.69
2017-10-10T02:42:10.041Z,970.72
2017-10-10T02:43:10.034Z,970.7
2017-10-10T02:44:10.027Z,970.69
2017-10-10T02:45:10.020Z,970.74
2017-10-10T02:46:10.018Z,970.74
2017-10-10T02:47:10.006Z,970.78
2017-10-10T02:48:09.998Z,970.77
2017-10-10T02:49:09.991Z,970.82
2017-10-10T02:50:09.986Z,970.8
2017-10-10T02:51:09.976Z,970.79
2017-10-10T02:52:09.969Z,970.77
2017-10-10T02:53:09.961Z,970.79
2017-10-10T02:54:09.955Z,970.8
2017-10-10T02:55:09.947Z,970.75
2017-10-10T02:56:09.941Z,970.75
2017-10-10T02:57:10.040Z,970.72
2017-10-10T02:58:09.926Z,970.71
2017-10-10T02:59:09.918Z,970.72
2017-10-10T03:00:09.912Z,970.71
2017-10-10T03:01:09.904Z,970.72
2017-10-10T03:02:09.900Z,970.73
2017-10-10T03:03:09.889Z,970.7
2017-10-10T03:04:09.882Z,970.67
2017-10-10T03:05:09.874Z,970.69
2017-10-10T03:06:09.867Z,970.66
2017-10-10T03:07:09.860Z,970.69
2017-10-10T03:08:09.853Z,970.66
2017-10-10T03:09:09.847Z,970.65
2017-10-10T03:10:09.840Z,970.65
2017-10-10T03:11:09.832Z,970.68
2017-10-10T03:12:09.924Z,970.65
2017-10-10T03:13:09.818Z,970.68
2017-10-10T03:14:09.811Z,970.63
2017-10-10T03:15:09.803Z,970.66
2017-10-10T03:16:09.797Z,970.67
2017-10-10T03:17:09.788Z,970.67
2017-10-10T03:18:09.781Z,970.67
2017-10-10T03:19:09.874Z,970.65
2017-10-10T03:20:09.767Z,970.65
2017-10-10T03:21:09.760Z,970.65
2017-10-10T03:22:09.751Z,970.65
2017-10-10T03:23:09.745Z,970.66
2017-10-10T03:24:09.738Z,970.68
2017-10-10T03:25:09.732Z,970.7
2017-10-10T03:26:09.725Z,970.7
2017-10-10T03:27:09.715Z,970.72
2017-10-10T03:28:09.709Z,970.69
2017-10-10T03:29:09.702Z,970.7
2017-10-10T03:30:09.803Z,970.66
2017-10-10T03:31:09.687Z,970.68
2017-10-10T03:32:09.679Z,970.66
2017-10-10T03:33:09.671Z,970.66
2017-10-10T03:34:09.665Z,970.66
2017-10-10T03:35:09.758Z,970.67
2017-10-10T03:36:09.750Z,970.63
2017-10-10T03:37:09.642Z,970.65
2017-10-10T03:38:09.636Z,970.6
2017-10-10T03:39:09.629Z,970.63
2017-10-10T03:40:09.622Z,970.64
2017-10-10T03:41:09.613Z,970.69
2017-10-10T03:42:09.611Z,970.71
2017-10-10T03:43:09.599Z,970.71
2017-10-10T03:44:09.691Z,970.74
2017-10-10T03:45:09.586Z,970.76
2017-10-10T03:46:09.577Z,970.75
2017-10-10T03:47:09.571Z,970.72
2017-10-10T03:48:09.564Z,970.68
2017-10-10T03:49:09.558Z,970.71
2017-10-10T03:50:09.548Z,970.69
2017-10-10T03:51:09.641Z,970.71
2017-10-10T03:52:09.533Z,970.69
2017-10-10T03:53:09.526Z,970.68
2017-10-10T03:54:09.519Z,970.69
2017-10-10T03:55:09.510Z,970.69
2017-10-10T03:56:09.504Z,970.69
2017-10-10T03:57:09.598Z,970.68
2017-10-10T03:58:09.489Z,970.69
2017-10-10T03:59:09.482Z,970.72
2017-10-10T04:00:09.574Z,970.71
2017-10-10T04:01:09.469Z,970.77
2017-10-10T04:02:09.460Z,970.73
2017-10-10T04:03:09.453Z,970.72
2017-10-10T04:04:09.446Z,970.73
2017-10-10T04:05:09.441Z,970.76
2017-10-10T04:06:09.537Z,970.76
2017-10-10T04:07:09.424Z,970.79
2017-10-10T04:08:09.416Z,970.77
2017-10-10T04:09:09.410Z,970.8
2017-10-10T04:10:09.401Z,970.78
2017-10-10T04:11:09.394Z,970.73
2017-10-10T04:12:09.388Z,970.74
2017-10-10T04:13:09.380Z,970.7
2017-10-10T04:14:09.373Z,970.72
2017-10-10T04:15:09.365Z,970.69
2017-10-10T04:16:09.358Z,970.7
2017-10-10T04:17:09.350Z,970.73
2017-10-10T04:18:09.442Z,970.76
2017-10-10T04:19:09.338Z,970.75
2017-10-10T04:20:09.328Z,970.7
2017-10-10T04:21:09.320Z,970.74
2017-10-10T04:22:09.313Z,970.74
2017-10-10T04:23:09.307Z,970.79
2017-10-10T04:24:09.299Z,970.79
2017-10-10T04:25:09.290Z,970.78
2017-10-10T04:26:09.285Z,970.78
2017-10-10T04:27:09.277Z,970.79
2017-10-10T04:28:09.269Z,970.82
2017-10-10T04:29:09.263Z,970.77
2017-10-10T04:30:09.254Z,970.78
2017-10-10T04:31:09.349Z,970.72
2017-10-10T04:32:09.241Z,970.72
2017-10-10T04:33:09.233Z,970.77
2017-10-10T04:34:09.325Z,970.76
2017-10-10T04:35:09.219Z,970.73
2017-10-10T04:36:09.210Z,970.78
2017-10-10T04:37:09.303Z,970.78
2017-10-10T04:38:09.198Z,970.78
2017-10-10T04:39:09.188Z,970.77
2017-10-10T04:40:09.281Z,970.78
2017-10-10T04:41:09.175Z,970.79
2017-10-10T04:42:09.167Z,970.78
2017-10-10T04:43:09.159Z,970.8
2017-10-10T04:44:09.151Z,970.75
2017-10-10T04:45:09.143Z,970.78
2017-10-10T04:46:09.138Z,970.8
2017-10-10T04:47:09.134Z,970.78
2017-10-10T04:48:09.137Z,970.81
2017-10-10T04:49:09.115Z,970.8
2017-10-10T04:50:09.108Z,970.81
2017-10-10T04:51:09.100Z,970.81
2017-10-10T04:52:09.096Z,970.84
2017-10-10T04:53:09.095Z,970.87
2017-10-10T04:54:09.080Z,970.87
2017-10-10T04:55:09.071Z,970.88
2017-10-10T04:56:09.064Z,970.91
2017-10-10T04:57:09.059Z,970.92
2017-10-10T04:58:09.049Z,970.93
2017-10-10T04:59:09.042Z,970.9
2017-10-10T05:00:09.034Z,970.93
2017-10-10T05:01:09.027Z,970.89
2017-10-10T05:02:09.020Z,970.92
2017-10-10T05:03:09.013Z,970.91
2017-10-10T05:04:09.105Z,970.87
2017-10-10T05:05:09.013Z,970.88
2017-10-10T05:06:08.991Z,970.9
2017-10-10T05:07:08.985Z,970.89
2017-10-10T05:08:08.975Z,970.93
2017-10-10T05:09:09.068Z,970.92
2017-10-10T05:10:09.062Z,970.91
2017-10-10T05:11:08.954Z,970.95
2017-10-10T05:12:08.946Z,970.98
2017-10-10T05:13:08.939Z,970.97
2017-10-10T05:14:08.931Z,970.96
2017-10-10T05:15:09.024Z,970.89
2017-10-10T05:16:08.918Z,970.91
2017-10-10T05:17:08.910Z,970.9
2017-10-10T05:18:08.906Z,970.91
2017-10-10T05:19:08.896Z,970.92
2017-10-10T05:20:08.888Z,970.94
2017-10-10T05:21:08.887Z,970.94
2017-10-10T05:22:08.873Z,970.94
2017-10-10T05:23:08.864Z,970.93
2017-10-10T05:24:08.858Z,970.92
2017-10-10T05:25:08.851Z,970.87
2017-10-10T05:26:08.843Z,970.86
2017-10-10T05:27:08.835Z,970.87
2017-10-10T05:28:08.837Z,970.85
2017-10-10T05:29:08.822Z,970.88
2017-10-10T05:30:08.814Z,970.89
2017-10-10T05:31:08.805Z,970.91
2017-10-10T05:32:08.799Z,970.9
2017-10-10T05:33:08.791Z,970.93
2017-10-10T05:34:08.783Z,970.93
2017-10-10T05:35:08.776Z,970.89
2017-10-10T05:36:08.775Z,970.92
2017-10-10T05:37:08.763Z,970.92
2017-10-10T05:38:08.754Z,970.89
2017-10-10T05:39:08.852Z,970.92
2017-10-10T05:40:08.740Z,970.94
2017-10-10T05:41:08.731Z,970.99
2017-10-10T05:42:08.725Z,970.98
2017-10-10T05:43:08.717Z,970.97
2017-10-10T05:44:08.711Z,971.01
2017-10-10T05:45:08.701Z,971.03
2017-10-10T05:46:08.695Z,971.05
2017-10-10T05:47:08.688Z,971.06
2017-10-10T05:48:08.681Z,971.04
2017-10-10T05:49:08.672Z,971.06
2017-10-10T05:50:08.669Z,971.12
2017-10-10T05:51:08.758Z,971.08
2017-10-10T05:52:08.651Z,971.07
2017-10-10T05:53:08.642Z,971.12
2017-10-10T05:54:08.636Z,971.1
2017-10-10T05:55:08.630Z,971.1
2017-10-10T05:56:08.621Z,971.08
2017-10-10T05:57:08.615Z,971.14
2017-10-10T05:58:08.607Z,971.11
2017-10-10T05:59:08.600Z,971.12
2017-10-10T06:00:08.590Z,971.16
2017-10-10T06:01:08.581Z,971.16
2017-10-10T06:02:08.575Z,971.13
2017-10-10T06:03:08.567Z,971.12
2017-10-10T06:04:08.568Z,971.08
2017-10-10T06:05:08.569Z,971.06
2017-10-10T06:06:08.647Z,971.07
2017-10-10T06:07:08.539Z,971.12
2017-10-10T06:08:08.530Z,971.12
2017-10-10T06:09:08.522Z,971.09
2017-10-10T06:10:08.516Z,971.13
2017-10-10T06:11:08.508Z,971.14
2017-10-10T06:12:08.504Z,971.12
2017-10-10T06:13:08.494Z,971.08
2017-10-10T06:14:08.486Z,971.11
2017-10-10T06:15:08.479Z,971.09
2017-10-10T06:16:08.473Z,971.14
2017-10-10T06:17:08.564Z,971.13
2017-10-10T06:18:08.455Z,971.13
2017-10-10T06:19:08.453Z,971.16
2017-10-10T06:20:08.441Z,971.13
2017-10-10T06:21:08.435Z,971.12
2017-10-10T06:22:08.429Z,971.18
2017-10-10T06:23:08.421Z,971.12
2017-10-10T06:24:08.413Z,971.16
2017-10-10T06:25:08.511Z,971.2
2017-10-10T06:26:08.399Z,971.19
2017-10-10T06:27:08.391Z,971.21
2017-10-10T06:28:08.384Z,971.2
2017-10-10T06:29:08.376Z,971.19
2017-10-10T06:30:08.369Z,971.19
2017-10-10T06:31:08.364Z,971.2
2017-10-10T06:32:08.455Z,971.21
2017-10-10T06:33:08.346Z,971.23
2017-10-10T06:34:08.341Z,971.22
2017-10-10T06:35:08.334Z,971.18
2017-10-10T06:36:08.325Z,971.26
2017-10-10T06:37:08.317Z,971.24
2017-10-10T06:38:08.309Z,971.23
2017-10-10T06:39:08.302Z,971.27
2017-10-10T06:40:08.294Z,971.28
2017-10-10T06:41:08.288Z,971.25
2017-10-10T06:42:08.279Z,971.27
2017-10-10T06:43:08.273Z,971.26
2017-10-10T06:44:08.269Z,971.24
2017-10-10T06:45:08.258Z,971.29
2017-10-10T06:46:08.252Z,971.29
2017-10-10T06:47:08.243Z,971.3
2017-10-10T06:48:08.237Z,971.31
2017-10-10T06:49:08.227Z,971.3
2017-10-10T06:50:08.222Z,971.33
2017-10-10T06:51:08.219Z,971.38
2017-10-10T06:52:08.206Z,971.35
2017-10-10T06:53:08.199Z,971.31
2017-10-10T06:54:08.191Z,971.32
2017-10-10T06:55:08.185Z,971.33
2017-10-10T06:56:08.177Z,971.34
2017-10-10T06:57:08.187Z,971.3
2017-10-10T06:58:08.161Z,971.34
2017-10-10T06:59:08.154Z,971.29
2017-10-10T07:00:08.148Z,971.37
2017-10-10T07:01:08.141Z,971.35
2017-10-10T07:02:08.232Z,971.38
2017-10-10T07:03:08.125Z,971.42
2017-10-10T07:04:08.118Z,971.44
2017-10-10T07:05:08.110Z,971.37
2017-10-10T07:06:08.104Z,971.38
2017-10-10T07:07:08.096Z,971.39
2017-10-10T07:08:08.091Z,971.4
2017-10-10T07:09:08.082Z,971.42
2017-10-10T07:10:08.075Z,971.46
2017-10-10T07:11:08.067Z,971.41
2017-10-10T07:12:08.060Z,971.48
2017-10-10T07:13:08.051Z,971.46
2017-10-10T07:14:08.044Z,971.45
2017-10-10T07:15:08.037Z,971.49
2017-10-10T07:16:08.029Z,971.49
2017-10-10T07:17:08.021Z,971.47
2017-10-10T07:18:08.016Z,971.49
2017-10-10T07:19:08.009Z,971.45
2017-10-10T07:20:07.999Z,971.45
2017-10-10T07:21:07.992Z,971.43
2017-10-10T07:22:07.986Z,971.49
2017-10-10T07:23:07.979Z,971.52
2017-10-10T07:24:07.970Z,971.49
2017-10-10T07:25:07.966Z,971.5
2017-10-10T07:26:07.958Z,971.53
2017-10-10T07:27:07.949Z,971.54
2017-10-10T07:28:07.942Z,971.54
2017-10-10T07:29:07.934Z,971.58
2017-10-10T07:30:07.928Z,971.57
2017-10-10T07:31:08.018Z,971.61
2017-10-10T07:32:07.913Z,971.66
2017-10-10T07:33:08.005Z,971.67
2017-10-10T07:34:07.898Z,971.69
2017-10-10T07:35:07.891Z,971.72
2017-10-10T07:36:07.882Z,971.72
2017-10-10T07:37:07.876Z,971.73
2017-10-10T07:38:07.867Z,971.72
2017-10-10T07:39:07.960Z,971.75
2017-10-10T07:40:07.855Z,971.72
2017-10-10T07:41:07.846Z,971.76
2017-10-10T07:42:07.838Z,971.76
2017-10-10T07:43:07.831Z,971.76
2017-10-10T07:44:07.828Z,971.78
2017-10-10T07:45:07.819Z,971.76
2017-10-10T07:46:07.809Z,971.81
2017-10-10T07:47:07.802Z,971.76
2017-10-10T07:48:07.794Z,971.79
2017-10-10T07:49:07.788Z,971.8
2017-10-10T07:50:07.779Z,971.84
2017-10-10T07:51:07.772Z,971.83
2017-10-10T07:52:07.767Z,971.88
2017-10-10T07:53:07.757Z,971.83
2017-10-10T07:54:07.750Z,971.84
2017-10-10T07:55:07.744Z,971.87
2017-10-10T07:56:07.737Z,971.82
2017-10-10T07:57:07.729Z,971.84
2017-10-10T07:58:07.722Z,971.82
2017-10-10T07:59:07.716Z,971.84
2017-10-10T08:00:07.807Z,971.81
2017-10-10T08:01:07.702Z,971.79
2017-10-10T08:02:07.693Z,971.8
2017-10-10T08:03:07.686Z,971.8
2017-10-10T08:04:07.679Z,971.8
2017-10-10T08:05:07.771Z,971.79
2017-10-10T08:06:07.663Z,971.77
2017-10-10T08:07:07.659Z,971.81
2017-10-10T08:08:07.650Z,971.79
2017-10-10T08:09:07.641Z,971.81
2017-10-10T08:10:07.735Z,971.77
2017-10-10T08:11:07.627Z,971.74
2017-10-10T08:12:07.621Z,971.7
2017-10-10T08:13:07.712Z,971.69
2017-10-10T08:14:07.706Z,971.76
2017-10-10T08:15:07.599Z,971.74
2017-10-10T08:16:07.591Z,971.78
2017-10-10T08:17:07.584Z,971.75
2017-10-10T08:18:07.576Z,971.81
2017-10-10T08:19:07.669Z,971.83
2017-10-10T08:20:07.563Z,971.84
2017-10-10T08:21:07.555Z,971.89
2017-10-10T08:22:07.546Z,971.93
2017-10-10T08:23:07.539Z,971.92
2017-10-10T08:24:07.533Z,971.91
2017-10-10T08:25:07.536Z,971.93
2017-10-10T08:26:07.519Z,971.97
2017-10-10T08:27:07.512Z,971.94
2017-10-10T08:28:07.504Z,971.95
2017-10-10T08:29:07.497Z,971.96
2017-10-10T08:30:07.490Z,971.91
2017-10-10T08:31:07.482Z,971.94
2017-10-10T08:32:07.477Z,971.91
2017-10-10T08:33:07.467Z,971.93
2017-10-10T08:34:07.461Z,971.89
2017-10-10T08:35:07.455Z,971.93
2017-10-10T08:36:07.548Z,971.92
2017-10-10T08:37:07.438Z,971.92
2017-10-10T08:38:07.431Z,971.92
2017-10-10T08:39:07.426Z,971.97
2017-10-10T08:40:07.417Z,971.92
2017-10-10T08:41:07.409Z,971.96
2017-10-10T08:42:07.404Z,971.94
2017-10-10T08:43:07.495Z,971.92
2017-10-10T08:44:07.389Z,971.97
2017-10-10T08:45:07.488Z,971.94
2017-10-10T08:46:07.376Z,971.95
2017-10-10T08:47:07.369Z,972.02
2017-10-10T08:48:07.367Z,972.04
2017-10-10T08:49:07.352Z,971.99
2017-10-10T08:50:07.447Z,972.03
2017-10-10T08:51:07.338Z,972.08
2017-10-10T08:52:07.332Z,972.07
2017-10-10T08:53:07.324Z,972.08
2017-10-10T08:54:07.321Z,972.07
2017-10-10T08:55:07.321Z,972.09
2017-10-10T08:56:07.404Z,972.05
2017-10-10T08:57:07.298Z,972.04
2017-10-10T08:58:07.290Z,972.04
2017-10-10T08:59:07.282Z,972.08
2017-10-10T09:00:07.273Z,972.04
2017-10-10T09:01:07.268Z,972.04
2017-10-10T09:02:07.359Z,972.1
2017-10-10T09:03:07.252Z,972.05
2017-10-10T09:04:07.245Z,972.07
2017-10-10T09:05:07.341Z,972.11
2017-10-10T09:06:07.234Z,972.12
2017-10-10T09:07:07.224Z,972.06
2017-10-10T09:08:07.222Z,972.07
2017-10-10T09:09:07.210Z,972.05
2017-10-10T09:10:07.203Z,972.06
2017-10-10T09:11:07.197Z,972.05
2017-10-10T09:12:07.189Z,972.02
2017-10-10T09:13:07.281Z,972.02
2017-10-10T09:14:07.173Z,972.02
2017-10-10T09:15:07.168Z,971.98
2017-10-10T09:16:07.164Z,971.97
2017-10-10T09:17:07.154Z,971.97
2017-10-10T09:18:07.147Z,971.97
2017-10-10T09:19:07.139Z,971.94
2017-10-10T09:20:07.133Z,971.99
2017-10-10T09:21:07.124Z,971.95
2017-10-10T09:22:07.116Z,971.97
2017-10-10T09:23:07.111Z,971.96
2017-10-10T09:24:07.104Z,971.98
2017-10-10T09:25:07.096Z,971.97
2017-10-10T09:26:07.089Z,971.98
2017-10-10T09:27:07.083Z,971.98
2017-10-10T09:28:07.075Z,971.98
2017-10-10T09:29:07.068Z,971.94
2017-10-10T09:30:07.062Z,971.93
2017-10-10T09:31:07.054Z,971.91
2017-10-10T09:32:07.048Z,971.94
2017-10-10T09:33:07.040Z,971.9
2017-10-10T09:34:07.034Z,971.89
2017-10-10T09:35:07.033Z,971.89
2017-10-10T09:36:07.118Z,971.89
2017-10-10T09:37:07.013Z,971.89
2017-10-10T09:38:07.005Z,971.88
2017-10-10T09:39:06.997Z,971.92
2017-10-10T09:40:06.990Z,971.92
2017-10-10T09:41:06.984Z,971.93
2017-10-10T09:42:06.979Z,971.94
2017-10-10T09:43:06.970Z,971.97
2017-10-10T09:44:06.963Z,971.97
2017-10-10T09:45:07.056Z,971.97
2017-10-10T09:46:06.948Z,972
2017-10-10T09:47:06.941Z,971.97
2017-10-10T09:48:06.933Z,972.03
2017-10-10T09:49:06.927Z,971.98
2017-10-10T09:50:06.919Z,972
2017-10-10T09:51:06.923Z,971.95
2017-10-10T09:52:06.906Z,971.99
2017-10-10T09:53:06.897Z,972
2017-10-10T09:54:06.992Z,971.98
2017-10-10T09:55:06.884Z,971.97
2017-10-10T09:56:06.878Z,971.96
2017-10-10T09:57:06.869Z,971.95
2017-10-10T09:58:06.862Z,971.96
2017-10-10T09:59:06.857Z,971.95
2017-10-10T10:00:06.849Z,971.97
2017-10-10T10:01:06.840Z,971.96
2017-10-10T10:02:06.837Z,971.91
2017-10-10T10:03:06.927Z,971.94
2017-10-10T10:04:06.819Z,971.91
2017-10-10T10:05:06.814Z,971.95
2017-10-10T10:06:06.805Z,971.96
2017-10-10T10:07:06.800Z,972
2017-10-10T10:08:06.891Z,972.01
2017-10-10T10:09:06.784Z,971.95
2017-10-10T10:10:06.778Z,972
2017-10-10T10:11:06.771Z,972
2017-10-10T10:12:06.763Z,972.05
2017-10-10T10:13:06.755Z,972.02
2017-10-10T10:14:06.751Z,972.03
2017-10-10T10:15:06.742Z,972.06
2017-10-10T10:16:06.734Z,972.01
2017-10-10T10:17:06.727Z,972
2017-10-10T10:18:06.720Z,971.99
2017-10-10T10:19:06.712Z,971.96
2017-10-10T10:20:06.706Z,971.96
2017-10-10T10:21:06.700Z,971.96
2017-10-10T10:22:06.692Z,971.95
2017-10-10T10:23:06.685Z,971.96
2017-10-10T10:24:06.679Z,971.92
2017-10-10T10:25:06.671Z,971.93
2017-10-10T10:26:06.664Z,971.96
2017-10-10T10:27:06.757Z,971.96
2017-10-10T10:28:06.649Z,971.97
2017-10-10T10:29:06.643Z,971.92
2017-10-10T10:30:06.634Z,971.97
2017-10-10T10:31:06.627Z,971.96
2017-10-10T10:32:06.622Z,971.94
2017-10-10T10:33:06.614Z,971.93
2017-10-10T10:34:06.606Z,971.91
2017-10-10T10:35:06.701Z,971.93
2017-10-10T10:36:06.599Z,971.94
2017-10-10T10:37:06.586Z,971.93
2017-10-10T10:38:06.577Z,971.92
2017-10-10T10:39:06.572Z,971.93
2017-10-10T10:40:06.671Z,971.92
2017-10-10T10:41:06.556Z,971.93
2017-10-10T10:42:06.550Z,971.89
2017-10-10T10:43:06.544Z,971.93
2017-10-10T10:44:06.536Z,971.86
2017-10-10T10:45:06.528Z,971.83
2017-10-10T10:46:06.523Z,971.84
2017-10-10T10:47:06.521Z,971.82
2017-10-10T10:48:06.508Z,971.83
2017-10-10T10:49:06.509Z,971.79
2017-10-10T10:50:06.495Z,971.83
2017-10-10T10:51:06.486Z,971.83
2017-10-10T10:52:06.480Z,971.86
2017-10-10T10:53:06.472Z,971.86
2017-10-10T10:54:06.466Z,971.89
2017-10-10T10:55:06.459Z,971.88
2017-10-10T10:56:06.552Z,971.9
2017-10-10T10:57:06.448Z,971.82
2017-10-10T10:58:06.437Z,971.84
2017-10-10T10:59:06.433Z,971.84
2017-10-10T11:00:06.425Z,971.83
2017-10-10T11:01:06.417Z,971.86
2017-10-10T11:02:06.410Z,971.87
2017-10-10T11:03:06.402Z,971.83
2017-10-10T11:04:06.397Z,971.86
2017-10-10T11:05:06.391Z,971.8
2017-10-10T11:06:06.483Z,971.81
2017-10-10T11:07:06.375Z,971.8
2017-10-10T11:08:06.369Z,971.81
2017-10-10T11:09:06.362Z,971.82
2017-10-10T11:10:06.355Z,971.77
2017-10-10T11:11:06.348Z,971.75
2017-10-10T11:12:06.341Z,971.73
2017-10-10T11:13:06.434Z,971.71
2017-10-10T11:14:06.327Z,971.71
2017-10-10T11:15:06.320Z,971.69
2017-10-10T11:16:06.315Z,971.65
2017-10-10T11:17:06.306Z,971.64
2017-10-10T11:18:06.300Z,971.64
2017-10-10T11:19:06.292Z,971.63
2017-10-10T11:20:06.287Z,971.62
2017-10-10T11:21:06.279Z,971.64
2017-10-10T11:22:06.272Z,971.64
2017-10-10T11:23:06.364Z,971.65
2017-10-10T11:24:06.259Z,971.62
2017-10-10T11:25:06.351Z,971.62
2017-10-10T11:26:06.244Z,971.63
2017-10-10T11:27:06.238Z,971.62
2017-10-10T11:28:06.230Z,971.58
2017-10-10T11:29:06.223Z,971.63
2017-10-10T11:30:06.217Z,971.64
2017-10-10T11:31:06.211Z,971.63
2017-10-10T11:32:06.302Z,971.59
2017-10-10T11:33:06.200Z,971.6
2017-10-10T11:34:06.198Z,971.55
2017-10-10T11:35:06.182Z,971.58
2017-10-10T11:36:06.174Z,971.54
2017-10-10T11:37:06.168Z,971.53
2017-10-10T11:38:06.161Z,971.52
2017-10-10T11:39:06.253Z,971.52
2017-10-10T11:40:06.149Z,971.47
2017-10-10T11:41:06.140Z,971.46
2017-10-10T11:42:06.233Z,971.44
2017-10-10T11:43:06.125Z,971.43
2017-10-10T11:44:06.120Z,971.41
2017-10-10T11:45:06.113Z,971.42
2017-10-10T11:46:06.106Z,971.38
2017-10-10T11:47:06.198Z,971.44
2017-10-10T11:48:06.091Z,971.37
2017-10-10T11:49:06.088Z,971.37
2017-10-10T11:50:06.077Z,971.41
2017-10-10T11:51:06.071Z,971.35
2017-10-10T11:52:06.063Z,971.36
2017-10-10T11:53:06.058Z,971.36
2017-10-10T11:54:06.049Z,971.35
2017-10-10T11:55:06.149Z,971.35
2017-10-10T11:56:06.037Z,971.36
2017-10-10T11:57:06.030Z,971.35
2017-10-10T11:58:06.122Z,971.36
2017-10-10T11:59:06.016Z,971.29
2017-10-10T12:00:06.009Z,971.28
2017-10-10T12:01:06.007Z,971.28
2017-10-10T12:02:05.999Z,971.26
2017-10-10T12:03:06.089Z,971.28
2017-10-10T12:04:06.082Z,971.26
2017-10-10T12:05:05.974Z,971.28
2017-10-10T12:06:05.968Z,971.24
2017-10-10T12:07:05.961Z,971.23
2017-10-10T12:08:05.954Z,971.24
2017-10-10T12:09:05.945Z,971.17
2017-10-10T12:10:05.940Z,971.22
2017-10-10T12:11:05.933Z,971.22
2017-10-10T12:12:05.928Z,971.2
2017-10-10T12:13:05.919Z,971.17
2017-10-10T12:14:05.912Z,971.15
2017-10-10T12:15:05.906Z,971.15
2017-10-10T12:16:05.899Z,971.12
2017-10-10T12:17:05.892Z,971.11
2017-10-10T12:18:05.885Z,971.09
2017-10-10T12:19:05.878Z,971.15
2017-10-10T12:20:05.876Z,971.12
2017-10-10T12:21:05.864Z,971.06
2017-10-10T12:22:05.858Z,971.02
2017-10-10T12:23:05.850Z,971.03
2017-10-10T12:24:05.843Z,971.03
2017-10-10T12:25:05.837Z,971.01
2017-10-10T12:26:05.830Z,971.02
2017-10-10T12:27:05.927Z,971.07
2017-10-10T12:28:05.815Z,971.08
2017-10-10T12:29:05.809Z,971.06
2017-10-10T12:30:05.803Z,971.06
2017-10-10T12:31:05.795Z,971.07